Donnie Sonier — WDF9285 — position and weather

sailwx.info

Track history (hours):
 
Tides and Currents Weather Stations Pressure Air Temp Water Temp Dewpoint Dewpoint Depression Visibility Wind Speed Wind Dir Waves Ship Positions

Donnie Sonier

Owner: LeBeouf Bros. Towing, LLC, Houma, LA. More information available from US FCC via Universal Licensing System and Coast Guard Vessel Documentation Center.

Last reported at 2017-Oct-26 17:32 UTC. Time now 2017-Nov-21 23:12 UTC.
Position N 29°35' W 090°35'.
Warning: this ship's position is 26 days out of date.

Length 22 m; draft 3.5 m.

Type: Tug. MMSI: 367503580.

Date/timePositionNaut miles runAvg speedWind from/ knotsBaromVisibWave heightAir tempDewpointWater temp
2017-Oct-26 17:32N 29°35' W 090°35'0 5.7
2017-Oct-26 17:30N 29°35' W 090°36'2 4.2
2017-Oct-26 17:00N 29°35' W 090°38'3 5.8
2017-Oct-26 16:30N 29°36' W 090°41'2 3.2
2017-Oct-26 16:00N 29°36' W 090°43'2 3.9
2017-Oct-26 15:31N 29°34' W 090°44'2 3.9
2017-Oct-26 15:00N 29°33' W 090°45'0 0.0
2017-Oct-26 14:31N 29°33' W 090°45'0 0.1
2017-Oct-26 14:00N 29°33' W 090°46'3 5.3
2017-Oct-26 13:30N 29°32' W 090°49'3 6.5
2017-Oct-26 12:59N 29°32' W 090°52'3 6.7
2017-Oct-26 12:30N 29°34' W 090°56'58 4.7
2017-Oct-26 00:18N 29°50' W 091°59'2 6.0
2017-Oct-25 23:59N 29°49' W 092°02'3 6.3
2017-Oct-25 23:30N 29°48' W 092°05'3 6.3
2017-Oct-25 23:00N 29°47' W 092°08'3 5.5
2017-Oct-25 22:30N 29°47' W 092°11'2 4.0
2017-Oct-25 22:00N 29°48' W 092°13'0 0.0
2017-Oct-25 21:31N 29°48' W 092°13'0 0.4
2017-Oct-25 21:00N 29°48' W 092°13'3 5.1
2017-Oct-25 20:30N 29°49' W 092°16'3 6.0
2017-Oct-25 20:00N 29°50' W 092°19'37 5.9
2017-Oct-25 13:46N 29°56' W 093°01'2 5.9
2017-Oct-25 13:30N 29°56' W 093°02'3 5.7
2017-Oct-25 13:00N 29°56' W 093°06'3 5.6
2017-Oct-25 12:30N 29°56' W 093°09'3 5.3
2017-Oct-25 12:00N 29°58' W 093°11'2 5.0
2017-Oct-25 11:31N 29°60' W 093°13'2 4.8
2017-Oct-25 11:00N 30°02' W 093°15'2 4.4
2017-Oct-25 10:30N 30°04' W 093°16'2 4.4
2017-Oct-25 10:00N 30°05' W 093°18'1 2.8
2017-Oct-25 09:30N 30°06' W 093°19'0 0.8
2017-Oct-25 09:01N 30°06' W 093°19'0 0.0
2017-Oct-25 08:30N 30°06' W 093°19'0 0.0
2017-Oct-25 08:00N 30°06' W 093°19'0 0.0
2017-Oct-25 07:31N 30°06' W 093°19'0 0.0
2017-Oct-25 07:01N 30°06' W 093°19'0 0.0
2017-Oct-25 06:31N 30°06' W 093°19'0 0.0
2017-Oct-25 06:00N 30°06' W 093°19'0 0.0
2017-Oct-25 05:31N 30°06' W 093°19'0 0.0
2017-Oct-25 05:00N 30°06' W 093°19'0 0.0
2017-Oct-25 04:31N 30°06' W 093°19'0 0.0
2017-Oct-25 04:00N 30°06' W 093°19'0 0.0
2017-Oct-25 03:30N 30°06' W 093°19'0 0.0
2017-Oct-25 03:00N 30°06' W 093°19'0 0.0
2017-Oct-25 02:30N 30°06' W 093°19'0 0.0
2017-Oct-25 02:01N 30°06' W 093°19'2 4.1
2017-Oct-25 01:30N 30°04' W 093°21'2 4.7
2017-Oct-25 01:00N 30°04' W 093°23'0 0.9
2017-Oct-25 00:31N 30°04' W 093°24'1 1.3
2017-Oct-25 00:01N 30°04' W 093°25'2 4.1
2017-Oct-24 23:30N 30°04' W 093°27'3 5.8
2017-Oct-24 23:00N 30°04' W 093°30'21 0.6
2017-Oct-23 13:41N 29°60' W 093°55'0 0.0
2017-Oct-23 13:30N 29°60' W 093°55'0 0.0
2017-Oct-23 12:43N 29°60' W 093°55'  
Track history (hours):
 
Tides and Currents Weather Stations Pressure Air Temp Water Temp Dewpoint Dewpoint Depression Visibility Wind Speed Wind Dir Waves Ship Positions

Donnie Sonier

Owner: LeBeouf Bros. Towing, LLC, Houma, LA. More information available from US FCC via Universal Licensing System and Coast Guard Vessel Documentation Center.

Last reported at 2017-Oct-26 17:32 UTC. Time now 2017-Nov-21 23:12 UTC.
Position N 29°35' W 090°35'.
Warning: this ship's position is 26 days out of date.

Length 22 m; draft 3.5 m.

Type: Tug. MMSI: 367503580.

Date/timePositionNaut miles runAvg speedWind from/ knotsBaromVisibWave heightAir tempDewpointWater temp
2017-Oct-26 17:32N 29°35' W 090°35'0 5.7
2017-Oct-26 17:30N 29°35' W 090°36'2 4.2
2017-Oct-26 17:00N 29°35' W 090°38'3 5.8
2017-Oct-26 16:30N 29°36' W 090°41'2 3.2
2017-Oct-26 16:00N 29°36' W 090°43'2 3.9
2017-Oct-26 15:31N 29°34' W 090°44'2 3.9
2017-Oct-26 15:00N 29°33' W 090°45'0 0.0
2017-Oct-26 14:31N 29°33' W 090°45'0 0.1
2017-Oct-26 14:00N 29°33' W 090°46'3 5.3
2017-Oct-26 13:30N 29°32' W 090°49'3 6.5
2017-Oct-26 12:59N 29°32' W 090°52'3 6.7
2017-Oct-26 12:30N 29°34' W 090°56'58 4.7
2017-Oct-26 00:18N 29°50' W 091°59'2 6.0
2017-Oct-25 23:59N 29°49' W 092°02'3 6.3
2017-Oct-25 23:30N 29°48' W 092°05'3 6.3
2017-Oct-25 23:00N 29°47' W 092°08'3 5.5
2017-Oct-25 22:30N 29°47' W 092°11'2 4.0
2017-Oct-25 22:00N 29°48' W 092°13'0 0.0
2017-Oct-25 21:31N 29°48' W 092°13'0 0.4
2017-Oct-25 21:00N 29°48' W 092°13'3 5.1
2017-Oct-25 20:30N 29°49' W 092°16'3 6.0
2017-Oct-25 20:00N 29°50' W 092°19'37 5.9
2017-Oct-25 13:46N 29°56' W 093°01'2 5.9
2017-Oct-25 13:30N 29°56' W 093°02'3 5.7
2017-Oct-25 13:00N 29°56' W 093°06'3 5.6
2017-Oct-25 12:30N 29°56' W 093°09'3 5.3
2017-Oct-25 12:00N 29°58' W 093°11'2 5.0
2017-Oct-25 11:31N 29°60' W 093°13'2 4.8
2017-Oct-25 11:00N 30°02' W 093°15'2 4.4
2017-Oct-25 10:30N 30°04' W 093°16'2 4.4
2017-Oct-25 10:00N 30°05' W 093°18'1 2.8
2017-Oct-25 09:30N 30°06' W 093°19'0 0.8
2017-Oct-25 09:01N 30°06' W 093°19'0 0.0
2017-Oct-25 08:30N 30°06' W 093°19'0 0.0
2017-Oct-25 08:00N 30°06' W 093°19'0 0.0
2017-Oct-25 07:31N 30°06' W 093°19'0 0.0
2017-Oct-25 07:01N 30°06' W 093°19'0 0.0
2017-Oct-25 06:31N 30°06' W 093°19'0 0.0
2017-Oct-25 06:00N 30°06' W 093°19'0 0.0
2017-Oct-25 05:31N 30°06' W 093°19'0 0.0
2017-Oct-25 05:00N 30°06' W 093°19'0 0.0
2017-Oct-25 04:31N 30°06' W 093°19'0 0.0
2017-Oct-25 04:00N 30°06' W 093°19'0 0.0
2017-Oct-25 03:30N 30°06' W 093°19'0 0.0
2017-Oct-25 03:00N 30°06' W 093°19'0 0.0
2017-Oct-25 02:30N 30°06' W 093°19'0 0.0
2017-Oct-25 02:01N 30°06' W 093°19'2 4.1
2017-Oct-25 01:30N 30°04' W 093°21'2 4.7
2017-Oct-25 01:00N 30°04' W 093°23'0 0.9
2017-Oct-25 00:31N 30°04' W 093°24'1 1.3
2017-Oct-25 00:01N 30°04' W 093°25'2 4.1
2017-Oct-24 23:30N 30°04' W 093°27'3 5.8
2017-Oct-24 23:00N 30°04' W 093°30'21 0.6
2017-Oct-23 13:41N 29°60' W 093°55'0 0.0
2017-Oct-23 13:30N 29°60' W 093°55'0 0.0
2017-Oct-23 12:43N 29°60' W 093°55'  

Dump ship's entire track history